Time;durP1;ratioP1;P1;durP2;ratioP2;P2;SDS_P1;SDS_P2;PMS_P1;PMS_P2;Temp;Humidity;BMP_temperature;BMP_pressure;BME280_temperature;BME280_humidity;BME280_pressure;Samples;Min_cycle;Max_cycle;Signal;HPM_P1;HPM_P2
2023/12/02 00:00:05;;;;;;;;;;;;;;;-1.06;100.00;99421.50;5073534;28;19955;-65
2023/12/02 00:02:38;;;;;;;;;;;;;;;-1.07;100.00;99424.97;5070210;28;20422;-66
2023/12/02 00:05:06;;;;;;;;;;;;;;;-1.08;100.00;99430.19;5088293;28;20035;-66
2023/12/02 00:07:34;;;;;;;;;;;;;;;-1.07;100.00;99435.38;5080945;28;19939;-67
2023/12/02 00:10:03;;;;;;;;;;;;;;;-1.08;100.00;99437.97;5070799;28;19924;-67
2023/12/02 00:12:30;;;;;;;;;;;;;;;-1.01;100.00;99438.75;5061704;28;19931;-66
2023/12/02 00:14:59;;;;;;;;;;;;;;;-1.02;100.00;99437.03;5073927;28;19974;-66
2023/12/02 00:17:30;;;;;;;;;;;;;;;-1.09;100.00;99442.31;5080840;28;20033;-65
2023/12/02 00:19:57;;;;;;;;;;;;;;;-1.13;100.00;99445.88;5089745;28;19924;-66
2023/12/02 00:22:25;;;;;;;;;;;;;;;-1.12;100.00;99447.59;5079749;28;19919;-65
2023/12/02 00:24:58;;;;;;;;;;;;;;;-1.14;100.00;99438.94;5079905;28;19924;-66
2023/12/02 00:27:26;;;;;;;;;;;;;;;-1.11;100.00;99438.91;5082585;28;19923;-67
2023/12/02 00:29:53;;;;;;;;;;;;;;;-1.16;100.00;99432.06;5077780;28;19924;-65
2023/12/02 00:32:23;;;;;;;;;;;;;;;-1.16;100.00;99429.47;5046709;28;19928;-67
2023/12/02 00:34:56;;;;;;;;;;;;;;;-1.17;100.00;99426.00;5047076;28;19932;-65
2023/12/02 00:37:25;;;;;;;;;;;;;;;-1.20;100.00;99418.25;5039547;28;19979;-68
2023/12/02 00:39:53;;;;;;;;;;;;;;;-1.25;100.00;99411.41;5032027;28;19927;-66
2023/12/02 00:42:21;;;;;;;;;;;;;;;-1.23;100.00;99412.25;5047426;28;20352;-68
2023/12/02 00:44:49;;;;;;;;;;;;;;;-1.27;100.00;99424.44;5036918;28;19925;-67
2023/12/02 00:47:17;;;;;;;;;;;;;;;-1.32;100.00;99426.22;5034977;28;20334;-67
2023/12/02 00:49:46;;;;;;;;;;;;;;;-1.33;100.00;99437.50;5033818;28;19931;-66
2023/12/02 00:52:14;;;;;;;;;;;;;;;-1.30;100.00;99434.00;5040679;28;19994;-67
2023/12/02 00:54:42;;;;;;;;;;;;;;;-1.34;100.00;99435.78;5017116;28;19925;-67
2023/12/02 00:57:09;;;;;;;;;;;;;;;-1.37;100.00;99440.16;5022867;28;20692;-66
2023/12/02 00:59:38;;;;;;;;;;;;;;;-1.43;100.00;99428.13;5028412;28;19976;-66
2023/12/02 01:02:07;;;;;;;;;;;;;;;-1.45;100.00;99427.28;5033104;28;20014;-66
2023/12/02 01:04:35;;;;;;;;;;;;;;;-1.47;100.00;99423.84;5031789;28;20027;-65
2023/12/02 01:07:06;;;;;;;;;;;;;;;-1.52;100.00;99426.50;5030743;28;19963;-66
2023/12/02 01:09:34;;;;;;;;;;;;;;;-1.53;100.00;99429.13;5029497;28;19927;-67
2023/12/02 01:12:02;;;;;;;;;;;;;;;-1.56;100.00;99431.75;5034529;28;20218;-66
2023/12/02 01:14:30;;;;;;;;;;;;;;;-1.60;100.00;99443.06;5038524;28;20262;-67
2023/12/02 01:16:59;;;;;;;;;;;;;;;-1.61;100.00;99447.41;5036703;28;19925;-66
2023/12/02 01:19:29;;;;;;;;;;;;;;;-1.61;100.00;99449.16;5036202;28;19935;-65
2023/12/02 01:22:02;;;;;;;;;;;;;;;-1.61;100.00;99451.75;5038963;28;19925;-67
2023/12/02 01:24:31;;;;;;;;;;;;;;;-1.56;100.00;99455.13;5038609;28;20000;-66
2023/12/02 01:26:59;;;;;;;;;;;;;;;-1.54;100.00;99461.16;5036850;28;19921;-67
2023/12/02 01:29:28;;;;;;;;;;;;;;;-1.52;100.00;99462.00;5038217;28;20325;-66
2023/12/02 01:31:58;;;;;;;;;;;;;;;-1.50;100.00;99463.69;5085544;27;19970;-67
2023/12/02 01:34:26;;;;;;;;;;;;;;;-1.49;100.00;99457.63;5082400;28;19927;-67
2023/12/02 01:36:53;;;;;;;;;;;;;;;-1.44;100.00;99466.22;5069881;28;19920;-66
2023/12/02 01:39:21;;;;;;;;;;;;;;;-1.38;100.00;99469.59;5078467;28;19962;-66
2023/12/02 01:41:52;;;;;;;;;;;;;;;-1.38;100.00;99475.66;5081869;28;19925;-66
2023/12/02 01:44:20;;;;;;;;;;;;;;;-1.41;100.00;99475.69;5076066;28;19924;-67
2023/12/02 01:46:47;;;;;;;;;;;;;;;-1.36;100.00;99473.91;5074808;28;19932;-66
2023/12/02 01:49:15;;;;;;;;;;;;;;;-1.32;100.00;99469.53;5059589;28;19985;-65
2023/12/02 01:51:43;;;;;;;;;;;;;;;-1.35;100.00;99477.34;5074911;28;19928;-66
2023/12/02 01:54:11;;;;;;;;;;;;;;;-1.32;100.00;99477.31;5060518;28;20329;-66
2023/12/02 01:56:40;;;;;;;;;;;;;;;-1.34;100.00;99482.53;5089624;28;19955;-67
2023/12/02 01:59:23;;;;;;;;;;;;;;;-1.28;100.00;99482.47;5084530;28;19920;-67
2023/12/02 02:01:51;;;;;;;;;;;;;;;-1.30;100.00;99489.41;5078117;28;20281;-67
2023/12/02 02:07:14;;;;;;;;;;;;;;;-1.30;100.00;99494.59;5084403;28;19926;-66
2023/12/02 02:09:45;;;;;;;;;;;;;;;-1.24;100.00;99497.09;5055714;28;19924;-67
2023/12/02 02:12:14;;;;;;;;;;;;;;;-1.25;100.00;99497.97;5051857;28;19924;-66
2023/12/02 02:14:43;;;;;;;;;;;;;;;-1.19;100.00;99491.84;5049629;28;19947;-66
2023/12/02 02:17:11;;;;;;;;;;;;;;;-1.18;100.00;99493.56;5056974;28;19924;-66
2023/12/02 02:19:38;;;;;;;;;;;;;;;-1.12;100.00;99481.34;5057329;28;20934;-66
2023/12/02 02:22:08;;;;;;;;;;;;;;;-1.11;100.00;99483.06;5057787;28;19939;-66
2023/12/02 02:24:36;;;;;;;;;;;;;;;-1.16;100.00;99477.06;5050376;28;19930;-67
2023/12/02 02:27:03;;;;;;;;;;;;;;;-1.17;100.00;99475.34;5062246;28;19928;-66
2023/12/02 02:29:32;;;;;;;;;;;;;;;-1.17;100.00;99474.50;5056636;28;20046;-66
2023/12/02 02:31:59;;;;;;;;;;;;;;;-1.21;100.00;99473.69;5047899;28;20620;-67
2023/12/02 02:34:27;;;;;;;;;;;;;;;-1.21;100.00;99471.09;5049720;28;19974;-65
2023/12/02 02:36:55;;;;;;;;;;;;;;;-1.22;100.00;99471.09;5044080;28;20018;-65
2023/12/02 02:39:24;;;;;;;;;;;;;;;-1.38;100.00;99449.69;5063329;28;19928;-67
2023/12/02 02:41:54;;;;;;;;;;;;;;;-1.25;100.00;99466.81;5060483;28;20290;-66
2023/12/02 02:44:23;;;;;;;;;;;;;;;-1.22;100.00;99476.28;5058619;28;19985;-67
2023/12/02 02:46:51;;;;;;;;;;;;;;;-1.16;100.00;99471.88;5059514;28;19934;-66
2023/12/02 02:49:20;;;;;;;;;;;;;;;-1.19;100.00;99481.44;5057188;28;19920;-65
2023/12/02 02:51:48;;;;;;;;;;;;;;;-1.18;100.00;99475.38;5058182;28;20510;-66
2023/12/02 02:54:15;;;;;;;;;;;;;;;-1.21;100.00;99476.28;5057358;28;19951;-65
2023/12/02 02:56:45;;;;;;;;;;;;;;;-1.22;100.00;99473.69;5056849;28;19925;-67
2023/12/02 02:59:12;;;;;;;;;;;;;;;-1.21;100.00;99473.69;5056101;28;20018;-67
2023/12/02 03:01:43;;;;;;;;;;;;;;;-1.12;100.00;99481.34;5055950;28;19929;-66
2023/12/02 03:04:12;;;;;;;;;;;;;;;-1.13;100.00;99490.03;5041241;28;19931;-65
2023/12/02 03:06:39;;;;;;;;;;;;;;;-1.13;100.00;99487.44;5061561;28;19939;-65
2023/12/02 03:09:11;;;;;;;;;;;;;;;-1.12;100.00;99489.16;5074464;28;19924;-66
2023/12/02 03:11:39;;;;;;;;;;;;;;;-1.14;100.00;99493.50;5058880;28;19929;-65
2023/12/02 03:14:08;;;;;;;;;;;;;;;-1.12;100.00;99486.56;5052871;28;19924;-67
2023/12/02 03:16:36;;;;;;;;;;;;;;;-1.10;100.00;99495.16;5058069;28;19925;-67
2023/12/02 03:19:06;;;;;;;;;;;;;;;-1.12;100.00;99491.75;5059373;28;19928;-67
2023/12/02 03:21:34;;;;;;;;;;;;;;;-1.10;100.00;99496.91;5064147;28;20583;-67
2023/12/02 03:24:03;;;;;;;;;;;;;;;-1.12;100.00;99491.75;5052540;28;19923;-67
2023/12/02 03:26:31;;;;;;;;;;;;;;;-1.13;100.00;99492.63;5060727;28;19924;-67
2023/12/02 03:28:59;;;;;;;;;;;;;;;-1.11;100.00;99496.06;5056834;28;20307;-67
2023/12/02 03:31:30;;;;;;;;;;;;;;;-1.06;100.00;99498.56;5055400;28;20451;-67
2023/12/02 03:33:58;;;;;;;;;;;;;;;-1.08;100.00;99496.00;5068496;28;19928;-65
2023/12/02 03:36:27;;;;;;;;;;;;;;;-1.16;100.00;99500.47;5055261;28;20289;-67
2023/12/02 03:38:58;;;;;;;;;;;;;;;-1.19;100.00;99499.63;5058351;28;19978;-67
2023/12/02 03:41:28;;;;;;;;;;;;;;;-1.23;100.00;99497.94;5062633;28;19959;-68
2023/12/02 03:43:56;;;;;;;;;;;;;;;-1.17;100.00;99506.53;5034004;28;19924;-66
2023/12/02 03:46:27;;;;;;;;;;;;;;;-1.19;100.00;99518.69;5055283;28;19931;-68
2023/12/02 03:48:56;;;;;;;;;;;;;;;-1.21;100.00;99515.25;5058868;28;19951;-65
2023/12/02 03:51:25;;;;;;;;;;;;;;;-1.20;100.00;99523.88;5057373;28;19931;-65
2023/12/02 03:53:53;;;;;;;;;;;;;;;-1.21;100.00;99530.81;5056287;28;19924;-65
2023/12/02 03:56:21;;;;;;;;;;;;;;;-1.21;100.00;99524.78;5057508;28;19924;-65
2023/12/02 03:58:49;;;;;;;;;;;;;;;-1.21;100.00;99541.22;5056495;28;20498;-67
2023/12/02 04:01:17;;;;;;;;;;;;;;;-1.16;100.00;99538.56;5060692;28;19928;-66
2023/12/02 04:03:45;;;;;;;;;;;;;;;-1.18;100.00;99537.72;5051066;28;19986;-67
2023/12/02 04:06:14;;;;;;;;;;;;;;;-1.15;100.00;99535.94;5051754;28;19928;-67
2023/12/02 04:08:43;;;;;;;;;;;;;;;-1.16;100.00;99531.63;5058132;28;20273;-66
2023/12/02 04:11:11;;;;;;;;;;;;;;;-1.14;100.00;99527.28;5055364;28;19952;-66
2023/12/02 04:13:40;;;;;;;;;;;;;;;-1.16;100.00;99528.19;5056743;28;19931;-66
2023/12/02 04:16:07;;;;;;;;;;;;;;;-1.20;100.00;99534.28;5054505;28;19924;-65
2023/12/02 04:18:35;;;;;;;;;;;;;;;-1.19;100.00;99539.47;5090753;28;19924;-66
2023/12/02 04:21:05;;;;;;;;;;;;;;;-1.16;100.00;99539.44;5053947;28;19930;-66
2023/12/02 04:23:34;;;;;;;;;;;;;;;-1.14;100.00;99542.00;5060150;28;19921;-69
2023/12/02 04:26:03;;;;;;;;;;;;;;;-1.16;100.00;99543.75;5035778;28;19935;-66
2023/12/02 04:28:32;;;;;;;;;;;;;;;-1.16;100.00;99533.38;5062696;28;19925;-65
2023/12/02 04:31:00;;;;;;;;;;;;;;;-1.19;100.00;99539.47;5059503;28;19924;-66
2023/12/02 04:33:28;;;;;;;;;;;;;;;-1.16;100.00;99538.56;5068238;28;19925;-65
2023/12/02 04:35:57;;;;;;;;;;;;;;;-1.19;100.00;99546.38;5048712;28;19992;-66
2023/12/02 04:38:25;;;;;;;;;;;;;;;-1.19;100.00;99554.19;5058273;28;19931;-66
2023/12/02 04:40:55;;;;;;;;;;;;;;;-1.20;100.00;99557.66;5056198;28;19999;-66
2023/12/02 04:43:23;;;;;;;;;;;;;;;-1.27;100.00;99561.22;5055290;28;19920;-65
2023/12/02 04:45:52;;;;;;;;;;;;;;;-1.26;100.00;99571.56;5052676;28;19929;-66
2023/12/02 04:48:20;;;;;;;;;;;;;;;-1.23;100.00;99568.94;5053560;28;19924;-66
2023/12/02 04:50:48;;;;;;;;;;;;;;;-1.21;100.00;99571.53;5061209;28;19920;-65
2023/12/02 04:53:17;;;;;;;;;;;;;;;-1.26;100.00;99566.38;5065963;28;19925;-66
2023/12/02 04:55:46;;;;;;;;;;;;;;;-1.29;100.00;99571.63;5043479;28;19936;-67
2023/12/02 04:58:15;;;;;;;;;;;;;;;-1.27;100.00;99571.63;5045596;28;19932;-65
2023/12/02 05:00:43;;;;;;;;;;;;;;;-1.41;100.00;99549.25;5042643;28;19928;-65
2023/12/02 05:03:16;;;;;;;;;;;;;;;-1.34;100.00;99569.97;5044029;28;20642;-66
2023/12/02 05:05:47;;;;;;;;;;;;;;;-1.34;100.00;99567.38;5046329;28;19924;-66
2023/12/02 05:08:16;;;;;;;;;;;;;;;-1.37;100.00;99568.25;5045830;28;19924;-66
2023/12/02 05:10:44;;;;;;;;;;;;;;;-1.42;100.00;99578.69;5046834;28;19924;-66
2023/12/02 05:13:12;;;;;;;;;;;;;;;-1.44;100.00;99588.25;5053141;28;19932;-65
2023/12/02 05:15:41;;;;;;;;;;;;;;;-1.43;100.00;99599.50;5041303;28;19990;-65
2023/12/02 05:18:11;;;;;;;;;;;;;;;-1.41;100.00;99597.72;5060945;28;20011;-66
2023/12/02 05:20:40;;;;;;;;;;;;;;;-1.42;100.00;99599.47;5063013;28;19935;-65
2023/12/02 05:23:07;;;;;;;;;;;;;;;-1.43;100.00;99608.16;5065021;28;19934;-66
2023/12/02 05:25:35;;;;;;;;;;;;;;;-1.39;100.00;99611.56;5055470;28;19931;-66
2023/12/02 05:28:04;;;;;;;;;;;;;;;-1.26;100.00;99620.09;5059010;28;19928;-66
2023/12/02 05:30:34;;;;;;;;;;;;;;;-1.30;100.00;99628.78;5062209;28;19928;-66
2023/12/02 05:33:04;;;;;;;;;;;;;;;-1.31;100.00;99624.47;5063601;28;20014;-66
2023/12/02 05:35:32;;;;;;;;;;;;;;;-1.43;100.00;99612.50;5051484;28;20133;-67
2023/12/02 05:38:01;;;;;;;;;;;;;;;-1.32;100.00;99640.94;5061847;28;20401;-66
2023/12/02 05:40:30;;;;;;;;;;;;;;;-1.28;100.00;99648.69;5064127;28;20118;-67
2023/12/02 05:42:58;;;;;;;;;;;;;;;-1.26;100.00;99659.06;5060453;28;19939;-67
2023/12/02 05:45:25;;;;;;;;;;;;;;;-1.21;100.00;99660.72;5059832;28;19925;-66
2023/12/02 05:47:53;;;;;;;;;;;;;;;-1.26;100.00;99659.88;5064097;28;19921;-66
2023/12/02 05:50:22;;;;;;;;;;;;;;;-1.23;100.00;99665.06;5061579;28;19928;-67
2023/12/02 05:52:50;;;;;;;;;;;;;;;-1.31;100.00;99673.81;5056349;28;20388;-66
2023/12/02 05:55:18;;;;;;;;;;;;;;;-1.33;100.00;99676.44;5036071;28;20070;-65
2023/12/02 05:57:47;;;;;;;;;;;;;;;-1.40;100.00;99682.56;5065328;28;19930;-66
2023/12/02 06:00:19;;;;;;;;;;;;;;;-1.54;100.00;99661.06;5060828;28;20480;-66
2023/12/02 06:02:49;;;;;;;;;;;;;;;-1.43;100.00;99677.41;5060518;28;20452;-65
2023/12/02 06:05:18;;;;;;;;;;;;;;;-1.47;100.00;99679.16;5060377;28;20004;-65
2023/12/02 06:07:47;;;;;;;;;;;;;;;-1.43;100.00;99685.19;5071497;28;19947;-66
2023/12/02 06:10:18;;;;;;;;;;;;;;;-1.41;100.00;99688.63;5062619;28;19925;-66
2023/12/02 06:12:46;;;;;;;;;;;;;;;-1.37;100.00;99682.53;5059932;28;20122;-66
2023/12/02 06:15:13;;;;;;;;;;;;;;;-1.33;100.00;99684.22;5052164;28;19931;-66
2023/12/02 06:17:41;;;;;;;;;;;;;;;-1.33;100.00;99679.03;5063103;28;19942;-66
2023/12/02 06:20:11;;;;;;;;;;;;;;;-1.32;100.00;99688.53;5061329;28;20012;-67
2023/12/02 06:22:42;;;;;;;;;;;;;;;-1.24;100.00;99697.09;5059926;28;19925;-66
2023/12/02 06:25:11;;;;;;;;;;;;;;;-1.23;100.00;99692.75;5062656;28;20294;-66
2023/12/02 06:27:39;;;;;;;;;;;;;;;-1.21;100.00;99699.66;5056874;28;19931;-67
2023/12/02 06:30:07;;;;;;;;;;;;;;;-1.27;100.00;99697.16;5061620;28;20305;-67
2023/12/02 06:32:39;;;;;;;;;;;;;;;-1.25;100.00;99690.19;5048603;28;19932;-67
2023/12/02 06:35:07;;;;;;;;;;;;;;;-1.26;100.00;99695.41;5054276;28;20073;-67
2023/12/02 06:37:37;;;;;;;;;;;;;;;-1.27;100.00;99697.16;5054863;28;20027;-68
2023/12/02 06:40:06;;;;;;;;;;;;;;;-1.29;100.00;99698.91;5060148;28;19951;-67
2023/12/02 06:42:38;;;;;;;;;;;;;;;-1.32;100.00;99704.13;5061119;28;19920;-66
2023/12/02 06:45:07;;;;;;;;;;;;;;;-1.35;100.00;99714.53;5054114;28;19985;-66
2023/12/02 06:47:36;;;;;;;;;;;;;;;-1.42;100.00;99724.13;5053920;28;20024;-66
2023/12/02 06:50:05;;;;;;;;;;;;;;;-1.49;100.00;99732.84;5061335;28;20019;-67
2023/12/02 06:52:33;;;;;;;;;;;;;;;-1.51;100.00;99731.13;5047051;28;20393;-66
2023/12/02 06:55:02;;;;;;;;;;;;;;;-1.46;100.00;99740.63;5074695;28;19928;-65
2023/12/02 06:57:33;;;;;;;;;;;;;;;-1.44;100.00;99748.41;5053773;28;19928;-66
2023/12/02 07:00:05;;;;;;;;;;;;;;;-1.47;100.00;99751.00;5060189;28;19931;-67
2023/12/02 07:02:33;;;;;;;;;;;;;;;-1.50;100.00;99756.22;5063087;28;20003;-66
2023/12/02 07:05:02;;;;;;;;;;;;;;;-1.49;100.00;99752.75;5053416;28;19924;-68
2023/12/02 07:07:30;;;;;;;;;;;;;;;-1.50;100.00;99764.88;5081037;28;20007;-66
2023/12/02 07:09:58;;;;;;;;;;;;;;;-1.53;100.00;99764.03;5062684;28;19928;-67
2023/12/02 07:12:26;;;;;;;;;;;;;;;-1.53;100.00;99766.63;5060991;28;19924;-68
2023/12/02 07:14:56;;;;;;;;;;;;;;;-1.54;100.00;99762.31;5056947;28;19924;-68
2023/12/02 07:17:25;;;;;;;;;;;;;;;-1.58;100.00;99764.09;5055947;28;19928;-67
2023/12/02 07:19:52;;;;;;;;;;;;;;;-1.73;100.00;99737.41;5061246;28;19986;-66
2023/12/02 07:22:22;;;;;;;;;;;;;;;-1.65;100.00;99761.56;5075061;28;19925;-66
2023/12/02 07:24:52;;;;;;;;;;;;;;;-1.62;100.00;99771.91;5052452;28;19928;-68
2023/12/02 07:27:20;;;;;;;;;;;;;;;-1.61;100.00;99769.31;5053950;28;20119;-67
2023/12/02 07:29:48;;;;;;;;;;;;;;;-1.61;100.00;99771.91;5058760;28;20349;-68
2023/12/02 07:32:19;;;;;;;;;;;;;;;-1.62;100.00;99771.91;5054226;28;19925;-67
2023/12/02 07:34:49;;;;;;;;;;;;;;;-1.60;100.00;99775.38;5054875;28;19973;-67
2023/12/02 07:37:17;;;;;;;;;;;;;;;-1.58;100.00;99776.22;5053452;28;19935;-66
2023/12/02 07:39:45;;;;;;;;;;;;;;;-1.57;100.00;99783.09;5056230;28;19932;-66
2023/12/02 07:42:13;;;;;;;;;;;;;;;-1.53;100.00;99787.41;5058063;28;19932;-66
2023/12/02 07:44:42;;;;;;;;;;;;;;;-1.46;100.00;99794.28;5058914;28;19924;-67
2023/12/02 07:47:10;;;;;;;;;;;;;;;-1.48;100.00;99794.28;5064292;28;20327;-68
2023/12/02 07:49:38;;;;;;;;;;;;;;;-1.50;100.00;99803.81;5060788;28;20013;-66
2023/12/02 07:52:07;;;;;;;;;;;;;;;-1.56;100.00;99805.59;5071792;28;19925;-66
2023/12/02 07:54:35;;;;;;;;;;;;;;;-1.59;100.00;99811.69;5058326;28;20444;-67
2023/12/02 07:57:05;;;;;;;;;;;;;;;-1.60;100.00;99811.72;5056896;28;19931;-66
2023/12/02 07:59:33;;;;;;;;;;;;;;;-1.57;100.00;99822.03;5053905;28;19920;-67
2023/12/02 08:02:00;;;;;;;;;;;;;;;-1.56;100.00;99815.97;5049842;28;19924;-67
2023/12/02 08:04:30;;;;;;;;;;;;;;;-1.58;100.00;99826.41;5055787;28;20019;-67
2023/12/02 08:06:59;;;;;;;;;;;;;;;-1.56;100.00;99821.19;5047442;28;20845;-68
2023/12/02 08:09:29;;;;;;;;;;;;;;;-1.52;100.00;99820.28;5057952;28;19931;-67
2023/12/02 08:11:58;;;;;;;;;;;;;;;-1.50;100.00;99829.78;5041118;28;20399;-66
2023/12/02 08:14:26;;;;;;;;;;;;;;;-1.47;100.00;99834.09;5042840;28;20002;-65
2023/12/02 08:16:54;;;;;;;;;;;;;;;-1.50;100.00;99834.13;5052634;28;20392;-68
2023/12/02 08:19:22;;;;;;;;;;;;;;;-1.46;100.00;99843.63;5054505;28;19928;-68
2023/12/02 08:21:50;;;;;;;;;;;;;;;-1.43;100.00;99846.22;5049035;28;19928;-66
2023/12/02 08:24:18;;;;;;;;;;;;;;;-1.41;100.00;99854.81;5072120;28;19928;-67
2023/12/02 08:26:48;;;;;;;;;;;;;;;-1.42;100.00;99850.53;5051594;28;19933;-65
2023/12/02 08:29:15;;;;;;;;;;;;;;;-1.38;100.00;99849.59;5057327;28;19928;-66
2023/12/02 08:31:43;;;;;;;;;;;;;;;-1.36;100.00;99847.88;5063425;28;19932;-66
2023/12/02 08:34:15;;;;;;;;;;;;;;;-1.31;100.00;99850.44;5061885;28;19947;-66
2023/12/02 08:36:43;;;;;;;;;;;;;;;-1.27;100.00;99853.00;5049888;28;19920;-66
2023/12/02 08:39:11;;;;;;;;;;;;;;;-1.23;100.00;99857.28;5061706;28;19993;-66
2023/12/02 08:41:39;;;;;;;;;;;;;;;-1.17;100.00;99858.97;5062050;28;19930;-66
2023/12/02 08:44:08;;;;;;;;;;;;;;;-1.16;100.00;99865.91;5054526;28;19955;-66
2023/12/02 08:46:42;;;;;;;;;;;;;;;-1.16;100.00;99861.56;5060691;28;19928;-66
2023/12/02 08:49:10;;;;;;;;;;;;;;;-1.13;100.00;99866.75;5064885;28;19928;-67
2023/12/02 08:51:39;;;;;;;;;;;;;;;-1.16;100.00;99861.56;5056019;28;20389;-66
2023/12/02 08:54:07;;;;;;;;;;;;;;;-1.17;100.00;99862.44;5040474;28;20377;-67
2023/12/02 08:56:35;;;;;;;;;;;;;;;-1.21;100.00;99868.53;5046451;28;20063;-66
2023/12/02 08:59:04;;;;;;;;;;;;;;;-1.17;100.00;99867.63;5072699;28;19920;-65
2023/12/02 09:01:33;;;;;;;;;;;;;;;-1.21;100.00;99873.72;5054809;28;19940;-66
2023/12/02 09:04:06;;;;;;;;;;;;;;;-1.22;100.00;99876.31;5051896;28;19935;-66
2023/12/02 09:06:35;;;;;;;;;;;;;;;-1.23;100.00;99874.59;5053671;28;19931;-66
2023/12/02 09:09:07;;;;;;;;;;;;;;;-1.19;100.00;99881.50;5061387;28;20551;-66
2023/12/02 09:11:35;;;;;;;;;;;;;;;-1.20;100.00;99877.19;5059310;28;19928;-66
2023/12/02 09:14:03;;;;;;;;;;;;;;;-1.28;100.00;99882.44;5042147;28;20027;-66
2023/12/02 09:16:31;;;;;;;;;;;;;;;-1.30;100.00;99886.78;5057225;28;19935;-66
2023/12/02 09:19:04;;;;;;;;;;;;;;;-1.25;100.00;99892.78;5058471;28;19947;-66
2023/12/02 09:21:53;;;;;;;;;;;;;;;-1.24;100.00;99894.53;5053144;28;19921;-67
2023/12/02 09:24:35;;;;;;;;;;;;;;;-1.19;100.00;99897.97;5077223;28;20012;-65
2023/12/02 09:27:05;;;;;;;;;;;;;;;-1.16;100.00;99907.47;5077296;28;19920;-68
2023/12/02 09:29:35;;;;;;;;;;;;;;;-1.17;100.00;99910.94;5051698;28;19943;-66
2023/12/02 09:32:30;;;;;;;;;;;;;;;-1.23;100.00;99917.03;5053698;28;19932;-66
2023/12/02 09:35:01;;;;;;;;;;;;;;;-1.24;100.00;99922.22;5051263;28;19924;-66
2023/12/02 09:38:02;;;;;;;;;;;;;;;-1.26;100.00;99916.22;5054095;28;19928;-67
2023/12/02 09:40:44;;;;;;;;;;;;;;;-1.15;100.00;99928.25;4977374;28;19922;-66
2023/12/02 09:43:21;;;;;;;;;;;;;;;-1.16;100.00;99929.13;5064525;28;19931;-67
2023/12/02 09:46:03;;;;;;;;;;;;;;;-1.21;100.00;99920.47;5057131;28;19921;-66
2023/12/02 09:48:35;;;;;;;;;;;;;;;-1.20;100.00;99931.75;5057902;28;19935;-66
2023/12/02 09:51:20;;;;;;;;;;;;;;;-1.18;100.00;99936.06;5060217;28;19952;-66
2023/12/02 09:53:53;;;;;;;;;;;;;;;-1.16;100.00;99943.84;5066393;28;19920;-66
2023/12/02 09:56:22;;;;;;;;;;;;;;;-1.24;100.00;99949.06;5052199;28;19920;-65
2023/12/02 09:59:00;;;;;;;;;;;;;;;-1.25;100.00;99952.53;5061933;28;20375;-65
2023/12/02 10:01:35;;;;;;;;;;;;;;;-1.27;100.00;99953.44;5063946;28;20014;-66
2023/12/02 10:04:06;;;;;;;;;;;;;;;-1.27;100.00;99962.09;5060778;28;20284;-68
2023/12/02 10:06:45;;;;;;;;;;;;;;;-1.27;100.00;99959.50;5063723;28;20023;-66
2023/12/02 10:09:19;;;;;;;;;;;;;;;-1.26;100.00;99961.19;5058430;28;19932;-66
2023/12/02 10:11:53;;;;;;;;;;;;;;;-1.26;100.00;99956.00;5053104;28;19935;-67
2023/12/02 10:14:23;;;;;;;;;;;;;;;-1.27;100.00;99953.44;5055200;28;19963;-66
2023/12/02 10:16:53;;;;;;;;;;;;;;;-1.21;100.00;99961.19;5056807;28;19936;-66
2023/12/02 10:19:25;;;;;;;;;;;;;;;-1.16;100.00;99962.03;5055451;28;19931;-68
2023/12/02 10:21:58;;;;;;;;;;;;;;;-1.12;100.00;99967.19;5061946;28;19974;-68
2023/12/02 10:24:29;;;;;;;;;;;;;;;-1.12;100.00;99969.81;5062794;28;19924;-67
2023/12/02 10:26:59;;;;;;;;;;;;;;;-1.11;100.00;99976.72;5039827;28;19932;-66
2023/12/02 10:29:29;;;;;;;;;;;;;;;-1.07;100.00;99972.34;5057268;28;19932;-66
2023/12/02 10:32:02;;;;;;;;;;;;;;;-1.04;100.00;99966.28;5063323;28;19936;-65
2023/12/02 10:34:34;;;;;;;;;;;;;;;-1.06;100.00;99967.13;5062026;28;19921;-66
2023/12/02 10:37:10;;;;;;;;;;;;;;;-1.13;100.00;99949.03;5067984;28;20048;-66
2023/12/02 10:39:42;;;;;;;;;;;;;;;-1.07;100.00;99960.22;5062804;28;19928;-67
2023/12/02 10:42:17;;;;;;;;;;;;;;;-1.10;100.00;99960.22;5074512;28;20022;-66
2023/12/02 10:44:54;;;;;;;;;;;;;;;-1.01;100.00;99964.53;5061214;28;19928;-68
2023/12/02 10:47:22;;;;;;;;;;;;;;;-1.08;100.00;99966.28;5054765;28;19956;-67
2023/12/02 10:49:50;;;;;;;;;;;;;;;-1.12;100.00;99961.16;5062674;28;19920;-66
2023/12/02 10:52:21;;;;;;;;;;;;;;;-1.11;100.00;99968.06;5074554;28;20322;-68
2023/12/02 10:54:53;;;;;;;;;;;;;;;-1.06;100.00;99964.53;5057147;28;20009;-67
2023/12/02 10:57:22;;;;;;;;;;;;;;;-0.99;100.00;99967.09;5048463;28;20005;-68
2023/12/02 10:59:55;;;;;;;;;;;;;;;-0.99;100.00;99967.09;5062198;28;19924;-68
2023/12/02 11:02:29;;;;;;;;;;;;;;;-0.97;100.00;99965.38;5057778;28;19920;-67
2023/12/02 11:05:03;;;;;;;;;;;;;;;-1.01;100.00;99961.06;5057528;28;19974;-69
2023/12/02 11:07:40;;;;;;;;;;;;;;;-1.01;100.00;99958.47;5078024;28;20026;-67
2023/12/02 11:10:10;;;;;;;;;;;;;;;-0.97;100.00;99963.63;5063329;28;19929;-67
2023/12/02 11:12:40;;;;;;;;;;;;;;;-0.92;100.00;99963.56;5062340;28;19963;-66
2023/12/02 11:15:13;;;;;;;;;;;;;;;-0.92;100.00;99960.97;5089894;28;20483;-66
2023/12/02 11:17:42;;;;;;;;;;;;;;;-0.86;100.00;99972.22;5048907;28;20123;-67
2023/12/02 11:20:16;;;;;;;;;;;;;;;-0.85;100.00;99973.94;5052762;28;19974;-69
2023/12/02 11:23:01;;;;;;;;;;;;;;;-0.86;100.00;99973.94;5059362;28;19932;-67
2023/12/02 11:25:35;;;;;;;;;;;;;;;-0.91;100.00;99973.09;5060872;28;20407;-67
2023/12/02 11:28:04;;;;;;;;;;;;;;;-0.96;100.00;99980.09;5053357;28;19928;-68
2023/12/02 11:30:45;;;;;;;;;;;;;;;-1.04;100.00;99979.25;5060606;28;19950;-66
2023/12/02 11:33:24;;;;;;;;;;;;;;;-1.07;100.00;99985.34;5057910;28;19928;-68
2023/12/02 11:35:58;;;;;;;;;;;;;;;-1.10;100.00;99988.81;5071675;28;19961;-67
2023/12/02 11:38:28;;;;;;;;;;;;;;;-1.13;100.00;99986.25;5054652;28;19931;-67
2023/12/02 11:41:04;;;;;;;;;;;;;;;-1.12;100.00;99987.13;5086103;28;19928;-67
2023/12/02 11:43:40;;;;;;;;;;;;;;;-1.11;100.00;99994.91;5083693;28;19924;-68
2023/12/02 11:46:12;;;;;;;;;;;;;;;-1.13;100.00;99995.78;5081718;28;19943;-67
2023/12/02 11:48:42;;;;;;;;;;;;;;;-1.24;100.00;99997.56;5044717;28;19939;-67
2023/12/02 11:51:28;;;;;;;;;;;;;;;-1.29;100.00;100008.00;5057428;28;19924;-67
2023/12/02 11:54:07;;;;;;;;;;;;;;;-1.30;100.00;100008.88;5061821;28;19932;-68
2023/12/02 11:56:38;;;;;;;;;;;;;;;-1.31;100.00;100020.13;5072228;28;19975;-68
2023/12/02 11:59:12;;;;;;;;;;;;;;;-1.30;100.00;100024.47;5058074;28;19969;-67
2023/12/02 12:01:51;;;;;;;;;;;;;;;-1.27;100.00;100024.44;5061727;28;19984;-68
2023/12/02 12:04:33;;;;;;;;;;;;;;;-1.16;100.00;100026.97;5038502;28;19982;-67
2023/12/02 12:07:07;;;;;;;;;;;;;;;-1.09;100.00;100023.47;5073152;28;19929;-68
2023/12/02 12:09:39;;;;;;;;;;;;;;;-1.02;100.00;100032.09;5054806;28;20007;-67
2023/12/02 12:12:11;;;;;;;;;;;;;;;-0.98;100.00;100034.69;5057478;28;20393;-67
2023/12/02 12:14:40;;;;;;;;;;;;;;;-1.09;100.00;100039.03;5085466;28;19929;-67
2023/12/02 12:17:09;;;;;;;;;;;;;;;-1.12;100.00;100041.69;5042547;28;19966;-67
2023/12/02 12:19:37;;;;;;;;;;;;;;;-1.09;100.00;100039.03;5052664;28;20656;-68
2023/12/02 12:22:07;;;;;;;;;;;;;;;-1.00;100.00;100041.63;5061489;28;19921;-68
2023/12/02 12:24:36;;;;;;;;;;;;;;;-0.97;100.00;100043.34;5058641;28;19935;-67
2023/12/02 12:27:05;;;;;;;;;;;;;;;-0.91;100.00;100053.69;5070412;28;24318;-67
2023/12/02 12:29:50;;;;;;;;;;;;;;;-0.87;100.00;100055.38;5049185;28;20206;-67
2023/12/02 12:32:17;;;;;;;;;;;;;;;-0.81;100.00;100065.75;5050429;28;19934;-66
2023/12/02 12:34:47;;;;;;;;;;;;;;;-0.83;100.00;100062.31;5055338;28;19924;-68
2023/12/02 12:37:17;;;;;;;;;;;;;;;-0.89;100.00;100068.41;5055681;28;19920;-66
2023/12/02 12:39:46;;;;;;;;;;;;;;;-0.92;100.00;100080.53;5050867;28;20012;-66
2023/12/02 12:42:14;;;;;;;;;;;;;;;-0.89;100.00;100080.53;5062524;28;19968;-68
2023/12/02 12:44:44;;;;;;;;;;;;;;;-0.89;100.00;100080.53;5057735;28;20002;-66
2023/12/02 12:47:12;;;;;;;;;;;;;;;-0.95;100.00;100088.38;5050201;28;19924;-67
2023/12/02 12:49:41;;;;;;;;;;;;;;;-0.97;100.00;100097.91;5049194;28;20585;-66
2023/12/02 12:52:09;;;;;;;;;;;;;;;-1.01;100.00;100101.38;5050940;28;19924;-66